sensor_id;sensor_type;location;lat;lon;timestamp;temperature;humidity
14378;DHT22;7272;53.668;9.578;2022-09-27T00:01:27;12.90;99.90
14378;DHT22;7272;53.668;9.578;2022-09-27T00:04:29;12.80;99.90
14378;DHT22;7272;53.668;9.578;2022-09-27T00:07:32;12.80;99.90
14378;DHT22;7272;53.668;9.578;2022-09-27T00:10:34;12.80;99.90
14378;DHT22;7272;53.668;9.578;2022-09-27T00:13:36;12.80;99.90
14378;DHT22;7272;53.668;9.578;2022-09-27T00:16:40;12.90;99.90
14378;DHT22;7272;53.668;9.578;2022-09-27T00:19:43;12.80;99.90
14378;DHT22;7272;53.668;9.578;2022-09-27T00:22:46;12.90;99.90
14378;DHT22;7272;53.668;9.578;2022-09-27T00:25:54;12.80;99.90
14378;DHT22;7272;53.668;9.578;2022-09-27T00:28:56;12.80;99.90
14378;DHT22;7272;53.668;9.578;2022-09-27T00:31:58;12.80;99.90
14378;DHT22;7272;53.668;9.578;2022-09-27T00:35:00;12.80;99.90
14378;DHT22;7272;53.668;9.578;2022-09-27T00:38:04;12.80;99.90
14378;DHT22;7272;53.668;9.578;2022-09-27T00:41:08;12.80;99.90
14378;DHT22;7272;53.668;9.578;2022-09-27T00:47:49;12.80;99.90
14378;DHT22;7272;53.668;9.578;2022-09-27T00:50:56;12.80;99.90
14378;DHT22;7272;53.668;9.578;2022-09-27T00:54:01;12.80;99.90
14378;DHT22;7272;53.668;9.578;2022-09-27T00:57:04;12.80;99.90
14378;DHT22;7272;53.668;9.578;2022-09-27T01:00:08;12.80;99.90
14378;DHT22;7272;53.668;9.578;2022-09-27T01:03:14;12.70;99.90
14378;DHT22;7272;53.668;9.578;2022-09-27T01:06:20;12.70;99.90
14378;DHT22;7272;53.668;9.578;2022-09-27T01:09:24;12.70;99.90
14378;DHT22;7272;53.668;9.578;2022-09-27T01:12:30;12.70;99.90
14378;DHT22;7272;53.668;9.578;2022-09-27T01:15:41;12.70;99.90
14378;DHT22;7272;53.668;9.578;2022-09-27T01:18:56;12.70;99.90
14378;DHT22;7272;53.668;9.578;2022-09-27T01:22:02;12.70;99.90
14378;DHT22;7272;53.668;9.578;2022-09-27T01:25:24;12.70;99.90
14378;DHT22;7272;53.668;9.578;2022-09-27T01:28:44;12.80;99.90
14378;DHT22;7272;53.668;9.578;2022-09-27T01:31:54;12.80;99.90
14378;DHT22;7272;53.668;9.578;2022-09-27T01:35:03;12.80;99.90
14378;DHT22;7272;53.668;9.578;2022-09-27T01:38:13;12.80;99.90
14378;DHT22;7272;53.668;9.578;2022-09-27T01:41:24;12.70;99.90
14378;DHT22;7272;53.668;9.578;2022-09-27T01:44:49;12.80;99.90
14378;DHT22;7272;53.668;9.578;2022-09-27T01:48:00;12.80;99.90
14378;DHT22;7272;53.668;9.578;2022-09-27T01:51:24;12.90;99.90
14378;DHT22;7272;53.668;9.578;2022-09-27T01:54:33;12.90;99.90
14378;DHT22;7272;53.668;9.578;2022-09-27T01:58:09;12.90;99.90
14378;DHT22;7272;53.668;9.578;2022-09-27T02:01:13;12.80;99.90
14378;DHT22;7272;53.668;9.578;2022-09-27T02:04:22;12.90;99.90
14378;DHT22;7272;53.668;9.578;2022-09-27T02:07:42;12.80;99.90
14378;DHT22;7272;53.668;9.578;2022-09-27T02:10:48;12.90;99.90
14378;DHT22;7272;53.668;9.578;2022-09-27T02:13:56;12.90;99.90
14378;DHT22;7272;53.668;9.578;2022-09-27T02:17:22;12.90;99.90
14378;DHT22;7272;53.668;9.578;2022-09-27T02:20:29;12.90;99.90
14378;DHT22;7272;53.668;9.578;2022-09-27T02:23:35;12.90;99.90
14378;DHT22;7272;53.668;9.578;2022-09-27T02:26:47;12.90;99.90
14378;DHT22;7272;53.668;9.578;2022-09-27T02:29:57;12.90;99.90
14378;DHT22;7272;53.668;9.578;2022-09-27T02:33:01;12.90;99.90
14378;DHT22;7272;53.668;9.578;2022-09-27T02:36:05;12.90;99.90
14378;DHT22;7272;53.668;9.578;2022-09-27T02:39:08;12.90;99.90
14378;DHT22;7272;53.668;9.578;2022-09-27T02:42:11;13.00;99.90
14378;DHT22;7272;53.668;9.578;2022-09-27T02:45:16;12.90;99.90
14378;DHT22;7272;53.668;9.578;2022-09-27T02:48:24;12.90;99.90
14378;DHT22;7272;53.668;9.578;2022-09-27T02:51:40;12.90;99.90
14378;DHT22;7272;53.668;9.578;2022-09-27T02:54:49;12.90;99.90
14378;DHT22;7272;53.668;9.578;2022-09-27T02:58:28;12.90;99.90
14378;DHT22;7272;53.668;9.578;2022-09-27T03:02:07;12.90;99.90
14378;DHT22;7272;53.668;9.578;2022-09-27T03:05:25;12.90;99.90
14378;DHT22;7272;53.668;9.578;2022-09-27T03:08:29;13.00;99.90
14378;DHT22;7272;53.668;9.578;2022-09-27T03:11:31;12.90;99.90
14378;DHT22;7272;53.668;9.578;2022-09-27T03:14:34;12.90;99.90
14378;DHT22;7272;53.668;9.578;2022-09-27T03:17:51;12.90;99.90
14378;DHT22;7272;53.668;9.578;2022-09-27T03:21:16;12.90;99.90
14378;DHT22;7272;53.668;9.578;2022-09-27T03:24:19;12.90;99.90
14378;DHT22;7272;53.668;9.578;2022-09-27T03:27:21;13.00;99.90
14378;DHT22;7272;53.668;9.578;2022-09-27T03:30:23;12.90;99.90
14378;DHT22;7272;53.668;9.578;2022-09-27T03:33:25;13.00;99.90
14378;DHT22;7272;53.668;9.578;2022-09-27T03:36:31;13.00;99.90
14378;DHT22;7272;53.668;9.578;2022-09-27T03:39:35;13.00;99.90
14378;DHT22;7272;53.668;9.578;2022-09-27T03:42:37;13.00;99.90
14378;DHT22;7272;53.668;9.578;2022-09-27T03:45:41;13.00;99.90
14378;DHT22;7272;53.668;9.578;2022-09-27T03:48:45;13.00;99.90
14378;DHT22;7272;53.668;9.578;2022-09-27T03:51:47;13.00;99.90
14378;DHT22;7272;53.668;9.578;2022-09-27T03:54:50;13.00;99.90
14378;DHT22;7272;53.668;9.578;2022-09-27T03:57:52;13.00;99.90
14378;DHT22;7272;53.668;9.578;2022-09-27T04:00:54;13.10;99.90
14378;DHT22;7272;53.668;9.578;2022-09-27T04:03:57;13.00;99.90
14378;DHT22;7272;53.668;9.578;2022-09-27T04:07:06;13.00;99.90
14378;DHT22;7272;53.668;9.578;2022-09-27T04:10:11;13.00;99.90
14378;DHT22;7272;53.668;9.578;2022-09-27T04:13:13;13.00;99.90
14378;DHT22;7272;53.668;9.578;2022-09-27T04:16:23;13.00;99.90
14378;DHT22;7272;53.668;9.578;2022-09-27T04:19:43;13.00;99.90
14378;DHT22;7272;53.668;9.578;2022-09-27T04:22:45;13.10;99.90
14378;DHT22;7272;53.668;9.578;2022-09-27T04:25:49;13.00;99.90
14378;DHT22;7272;53.668;9.578;2022-09-27T04:29:05;13.10;99.90
14378;DHT22;7272;53.668;9.578;2022-09-27T04:32:12;13.10;99.90
14378;DHT22;7272;53.668;9.578;2022-09-27T04:35:33;13.10;99.90
14378;DHT22;7272;53.668;9.578;2022-09-27T04:38:52;13.10;99.90
14378;DHT22;7272;53.668;9.578;2022-09-27T04:41:57;13.10;99.90
14378;DHT22;7272;53.668;9.578;2022-09-27T04:44:59;13.10;99.90
14378;DHT22;7272;53.668;9.578;2022-09-27T04:48:01;13.10;99.90
14378;DHT22;7272;53.668;9.578;2022-09-27T04:51:04;13.10;99.90
14378;DHT22;7272;53.668;9.578;2022-09-27T04:54:06;13.20;99.90
14378;DHT22;7272;53.668;9.578;2022-09-27T04:57:16;13.20;99.90
14378;DHT22;7272;53.668;9.578;2022-09-27T05:00:19;13.20;99.90
14378;DHT22;7272;53.668;9.578;2022-09-27T05:03:25;13.20;99.90
14378;DHT22;7272;53.668;9.578;2022-09-27T05:06:31;13.20;99.90
14378;DHT22;7272;53.668;9.578;2022-09-27T05:09:40;13.20;99.90
14378;DHT22;7272;53.668;9.578;2022-09-27T05:12:43;13.20;99.90
14378;DHT22;7272;53.668;9.578;2022-09-27T05:15:49;13.20;99.90
14378;DHT22;7272;53.668;9.578;2022-09-27T05:19:12;13.20;99.90
14378;DHT22;7272;53.668;9.578;2022-09-27T05:22:29;13.20;99.90
14378;DHT22;7272;53.668;9.578;2022-09-27T05:25:32;13.10;99.90
14378;DHT22;7272;53.668;9.578;2022-09-27T05:28:35;13.30;99.90
14378;DHT22;7272;53.668;9.578;2022-09-27T05:31:37;13.40;99.90
14378;DHT22;7272;53.668;9.578;2022-09-27T05:34:40;13.20;99.90
14378;DHT22;7272;53.668;9.578;2022-09-27T05:37:42;13.10;99.90
14378;DHT22;7272;53.668;9.578;2022-09-27T05:40:44;13.10;99.90
14378;DHT22;7272;53.668;9.578;2022-09-27T05:43:49;13.10;99.90
14378;DHT22;7272;53.668;9.578;2022-09-27T05:46:52;13.10;99.90
14378;DHT22;7272;53.668;9.578;2022-09-27T05:49:54;13.10;99.90
14378;DHT22;7272;53.668;9.578;2022-09-27T05:52:56;13.10;99.90
14378;DHT22;7272;53.668;9.578;2022-09-27T05:56:00;13.10;99.90
14378;DHT22;7272;53.668;9.578;2022-09-27T05:59:11;13.00;99.90
14378;DHT22;7272;53.668;9.578;2022-09-27T06:02:40;12.90;99.90
14378;DHT22;7272;53.668;9.578;2022-09-27T06:05:55;12.80;99.90
14378;DHT22;7272;53.668;9.578;2022-09-27T06:09:13;12.70;99.90
14378;DHT22;7272;53.668;9.578;2022-09-27T06:12:15;12.60;99.90
14378;DHT22;7272;53.668;9.578;2022-09-27T06:15:21;12.50;99.90
14378;DHT22;7272;53.668;9.578;2022-09-27T06:18:24;12.50;99.90
14378;DHT22;7272;53.668;9.578;2022-09-27T06:21:26;12.50;99.90
14378;DHT22;7272;53.668;9.578;2022-09-27T06:24:30;12.60;99.90
14378;DHT22;7272;53.668;9.578;2022-09-27T06:27:39;12.60;99.90
14378;DHT22;7272;53.668;9.578;2022-09-27T06:30:48;12.70;99.90
14378;DHT22;7272;53.668;9.578;2022-09-27T06:33:58;12.70;99.90
14378;DHT22;7272;53.668;9.578;2022-09-27T06:37:01;12.80;99.90
14378;DHT22;7272;53.668;9.578;2022-09-27T06:40:05;12.80;99.90
14378;DHT22;7272;53.668;9.578;2022-09-27T06:43:27;12.90;99.90
14378;DHT22;7272;53.668;9.578;2022-09-27T06:46:35;12.90;99.90
14378;DHT22;7272;53.668;9.578;2022-09-27T06:49:55;12.90;99.90
14378;DHT22;7272;53.668;9.578;2022-09-27T06:52:59;12.90;99.90
14378;DHT22;7272;53.668;9.578;2022-09-27T06:56:02;13.00;99.90
14378;DHT22;7272;53.668;9.578;2022-09-27T06:59:15;13.00;99.90
14378;DHT22;7272;53.668;9.578;2022-09-27T07:02:55;13.00;99.90
14378;DHT22;7272;53.668;9.578;2022-09-27T07:06:21;13.00;99.90
14378;DHT22;7272;53.668;9.578;2022-09-27T07:09:36;13.00;99.90
14378;DHT22;7272;53.668;9.578;2022-09-27T07:12:40;13.00;99.90
14378;DHT22;7272;53.668;9.578;2022-09-27T07:15:43;13.20;99.90
14378;DHT22;7272;53.668;9.578;2022-09-27T07:18:50;13.20;99.90
14378;DHT22;7272;53.668;9.578;2022-09-27T07:21:52;13.20;99.90
14378;DHT22;7272;53.668;9.578;2022-09-27T07:24:55;13.10;99.90
14378;DHT22;7272;53.668;9.578;2022-09-27T07:28:00;13.10;99.90
14378;DHT22;7272;53.668;9.578;2022-09-27T07:31:03;13.10;99.90
14378;DHT22;7272;53.668;9.578;2022-09-27T07:34:07;13.10;99.90
14378;DHT22;7272;53.668;9.578;2022-09-27T07:37:11;13.20;99.90
14378;DHT22;7272;53.668;9.578;2022-09-27T07:40:14;13.10;99.90
14378;DHT22;7272;53.668;9.578;2022-09-27T07:43:16;13.00;99.90
14378;DHT22;7272;53.668;9.578;2022-09-27T07:46:19;12.90;99.90
14378;DHT22;7272;53.668;9.578;2022-09-27T07:49:41;12.80;99.90
14378;DHT22;7272;53.668;9.578;2022-09-27T07:53:04;12.80;99.90
14378;DHT22;7272;53.668;9.578;2022-09-27T07:56:23;12.80;99.90
14378;DHT22;7272;53.668;9.578;2022-09-27T07:59:25;12.80;99.90
14378;DHT22;7272;53.668;9.578;2022-09-27T08:02:27;12.70;99.90
14378;DHT22;7272;53.668;9.578;2022-09-27T08:05:34;12.80;99.90
14378;DHT22;7272;53.668;9.578;2022-09-27T08:08:37;12.80;99.90
14378;DHT22;7272;53.668;9.578;2022-09-27T08:11:39;12.90;99.90
14378;DHT22;7272;53.668;9.578;2022-09-27T08:14:43;12.90;99.90
14378;DHT22;7272;53.668;9.578;2022-09-27T08:17:45;12.90;99.90
14378;DHT22;7272;53.668;9.578;2022-09-27T08:20:56;12.90;99.90
14378;DHT22;7272;53.668;9.578;2022-09-27T08:24:31;12.80;99.90
14378;DHT22;7272;53.668;9.578;2022-09-27T08:27:40;12.90;99.90
14378;DHT22;7272;53.668;9.578;2022-09-27T08:30:57;13.00;99.90
14378;DHT22;7272;53.668;9.578;2022-09-27T08:33:59;13.10;99.90
14378;DHT22;7272;53.668;9.578;2022-09-27T08:37:03;13.10;99.90
14378;DHT22;7272;53.668;9.578;2022-09-27T08:40:08;13.10;99.90
14378;DHT22;7272;53.668;9.578;2022-09-27T08:43:18;13.10;99.90
14378;DHT22;7272;53.668;9.578;2022-09-27T08:46:29;13.10;99.90
14378;DHT22;7272;53.668;9.578;2022-09-27T08:49:37;13.00;99.90
14378;DHT22;7272;53.668;9.578;2022-09-27T08:52:45;13.00;99.90
14378;DHT22;7272;53.668;9.578;2022-09-27T08:55:52;13.10;99.90
14378;DHT22;7272;53.668;9.578;2022-09-27T08:59:05;13.10;99.90
14378;DHT22;7272;53.668;9.578;2022-09-27T09:02:16;13.10;99.90
14378;DHT22;7272;53.668;9.578;2022-09-27T09:05:27;13.10;99.90
14378;DHT22;7272;53.668;9.578;2022-09-27T09:08:40;13.20;99.90
14378;DHT22;7272;53.668;9.578;2022-09-27T09:11:55;13.10;99.90
14378;DHT22;7272;53.668;9.578;2022-09-27T09:15:33;13.20;99.90
14378;DHT22;7272;53.668;9.578;2022-09-27T09:19:04;13.20;99.90
14378;DHT22;7272;53.668;9.578;2022-09-27T09:22:42;13.30;99.90
14378;DHT22;7272;53.668;9.578;2022-09-27T09:25:57;13.30;99.90
14378;DHT22;7272;53.668;9.578;2022-09-27T09:29:19;13.20;99.90
14378;DHT22;7272;53.668;9.578;2022-09-27T09:32:32;13.20;99.90
14378;DHT22;7272;53.668;9.578;2022-09-27T09:35:38;13.20;99.90
14378;DHT22;7272;53.668;9.578;2022-09-27T09:38:45;13.30;99.90
14378;DHT22;7272;53.668;9.578;2022-09-27T09:42:03;13.30;99.90
14378;DHT22;7272;53.668;9.578;2022-09-27T09:45:14;13.30;99.90
14378;DHT22;7272;53.668;9.578;2022-09-27T09:48:23;13.20;99.90
14378;DHT22;7272;53.668;9.578;2022-09-27T09:51:33;13.20;99.90
14378;DHT22;7272;53.668;9.578;2022-09-27T09:54:40;13.20;99.90
14378;DHT22;7272;53.668;9.578;2022-09-27T09:57:53;13.10;99.90
14378;DHT22;7272;53.668;9.578;2022-09-27T10:01:12;13.10;99.90
14378;DHT22;7272;53.668;9.578;2022-09-27T10:04:18;13.00;99.90
14378;DHT22;7272;53.668;9.578;2022-09-27T10:07:22;13.10;99.90
14378;DHT22;7272;53.668;9.578;2022-09-27T10:10:26;13.10;99.90
14378;DHT22;7272;53.668;9.578;2022-09-27T10:13:32;13.10;99.90
14378;DHT22;7272;53.668;9.578;2022-09-27T10:16:36;13.00;99.90
14378;DHT22;7272;53.668;9.578;2022-09-27T10:19:38;13.00;99.90
14378;DHT22;7272;53.668;9.578;2022-09-27T10:22:45;13.00;99.90
14378;DHT22;7272;53.668;9.578;2022-09-27T10:26:06;13.00;99.90
14378;DHT22;7272;53.668;9.578;2022-09-27T10:29:29;13.00;99.90
14378;DHT22;7272;53.668;9.578;2022-09-27T10:32:33;13.00;99.90
14378;DHT22;7272;53.668;9.578;2022-09-27T10:35:56;13.00;99.90
14378;DHT22;7272;53.668;9.578;2022-09-27T10:39:21;13.00;99.90
14378;DHT22;7272;53.668;9.578;2022-09-27T10:42:31;13.00;99.90
14378;DHT22;7272;53.668;9.578;2022-09-27T10:45:36;13.00;99.90
14378;DHT22;7272;53.668;9.578;2022-09-27T10:49:09;13.00;99.90
14378;DHT22;7272;53.668;9.578;2022-09-27T10:52:18;13.00;99.90
14378;DHT22;7272;53.668;9.578;2022-09-27T10:55:22;13.00;99.90
14378;DHT22;7272;53.668;9.578;2022-09-27T10:58:30;13.00;99.90
14378;DHT22;7272;53.668;9.578;2022-09-27T11:01:41;13.10;99.90
14378;DHT22;7272;53.668;9.578;2022-09-27T11:05:06;13.10;99.90
14378;DHT22;7272;53.668;9.578;2022-09-27T11:08:22;13.10;99.90
14378;DHT22;7272;53.668;9.578;2022-09-27T11:11:31;13.10;99.90
14378;DHT22;7272;53.668;9.578;2022-09-27T11:14:34;13.20;99.90
14378;DHT22;7272;53.668;9.578;2022-09-27T11:17:42;13.20;99.90
14378;DHT22;7272;53.668;9.578;2022-09-27T11:20:50;13.20;99.90
14378;DHT22;7272;53.668;9.578;2022-09-27T11:24:05;13.20;99.90
14378;DHT22;7272;53.668;9.578;2022-09-27T11:27:17;13.30;99.90
14378;DHT22;7272;53.668;9.578;2022-09-27T11:30:23;13.40;99.90
14378;DHT22;7272;53.668;9.578;2022-09-27T11:34:07;13.40;99.90
14378;DHT22;7272;53.668;9.578;2022-09-27T11:37:20;13.40;99.90
14378;DHT22;7272;53.668;9.578;2022-09-27T11:40:31;13.40;99.90
14378;DHT22;7272;53.668;9.578;2022-09-27T11:47:12;13.40;99.90
14378;DHT22;7272;53.668;9.578;2022-09-27T11:50:45;13.50;99.90
14378;DHT22;7272;53.668;9.578;2022-09-27T11:54:03;13.50;99.90
14378;DHT22;7272;53.668;9.578;2022-09-27T11:57:14;13.40;99.90
14378;DHT22;7272;53.668;9.578;2022-09-27T12:00:20;13.40;99.90
14378;DHT22;7272;53.668;9.578;2022-09-27T12:04:15;13.40;99.90
14378;DHT22;7272;53.668;9.578;2022-09-27T12:07:28;13.40;99.90
14378;DHT22;7272;53.668;9.578;2022-09-27T12:10:37;13.40;99.90
14378;DHT22;7272;53.668;9.578;2022-09-27T12:13:42;13.40;99.90
14378;DHT22;7272;53.668;9.578;2022-09-27T12:16:49;13.50;99.90
14378;DHT22;7272;53.668;9.578;2022-09-27T12:19:55;13.60;99.90
14378;DHT22;7272;53.668;9.578;2022-09-27T12:23:17;13.60;99.90
14378;DHT22;7272;53.668;9.578;2022-09-27T12:26:41;13.60;99.90
14378;DHT22;7272;53.668;9.578;2022-09-27T12:29:45;13.80;99.90
14378;DHT22;7272;53.668;9.578;2022-09-27T12:32:57;13.70;99.90
14378;DHT22;7272;53.668;9.578;2022-09-27T12:36:05;13.70;99.90
14378;DHT22;7272;53.668;9.578;2022-09-27T12:39:17;13.70;99.90
14378;DHT22;7272;53.668;9.578;2022-09-27T12:42:30;13.70;99.90
14378;DHT22;7272;53.668;9.578;2022-09-27T12:45:46;13.70;99.90
14378;DHT22;7272;53.668;9.578;2022-09-27T12:48:55;13.80;99.90
14378;DHT22;7272;53.668;9.578;2022-09-27T12:52:09;13.90;99.90
14378;DHT22;7272;53.668;9.578;2022-09-27T12:59:16;14.00;99.90
14378;DHT22;7272;53.668;9.578;2022-09-27T13:06:14;14.40;99.90
14378;DHT22;7272;53.668;9.578;2022-09-27T13:09:41;14.40;99.90
14378;DHT22;7272;53.668;9.578;2022-09-27T13:12:48;14.40;99.90
14378;DHT22;7272;53.668;9.578;2022-09-27T13:15:57;14.50;99.90
14378;DHT22;7272;53.668;9.578;2022-09-27T13:19:02;14.50;99.90
14378;DHT22;7272;53.668;9.578;2022-09-27T13:22:06;14.40;99.90
14378;DHT22;7272;53.668;9.578;2022-09-27T13:25:48;14.40;99.90
14378;DHT22;7272;53.668;9.578;2022-09-27T13:29:25;14.40;99.90
14378;DHT22;7272;53.668;9.578;2022-09-27T13:32:29;14.60;99.90
14378;DHT22;7272;53.668;9.578;2022-09-27T13:35:37;14.50;99.90
14378;DHT22;7272;53.668;9.578;2022-09-27T13:38:52;14.40;99.90
14378;DHT22;7272;53.668;9.578;2022-09-27T13:42:08;14.30;99.90
14378;DHT22;7272;53.668;9.578;2022-09-27T13:45:19;14.20;99.90
14378;DHT22;7272;53.668;9.578;2022-09-27T13:48:31;14.00;99.90
14378;DHT22;7272;53.668;9.578;2022-09-27T13:51:39;14.00;99.90
14378;DHT22;7272;53.668;9.578;2022-09-27T13:54:49;13.90;99.90
14378;DHT22;7272;53.668;9.578;2022-09-27T13:57:54;13.90;99.90
14378;DHT22;7272;53.668;9.578;2022-09-27T14:01:04;13.90;99.90
14378;DHT22;7272;53.668;9.578;2022-09-27T14:04:16;14.00;99.90
14378;DHT22;7272;53.668;9.578;2022-09-27T14:07:23;14.10;99.90
14378;DHT22;7272;53.668;9.578;2022-09-27T14:10:30;14.10;99.90
14378;DHT22;7272;53.668;9.578;2022-09-27T14:13:34;14.00;99.90
14378;DHT22;7272;53.668;9.578;2022-09-27T14:16:43;14.00;99.90
14378;DHT22;7272;53.668;9.578;2022-09-27T14:19:48;14.00;99.90
14378;DHT22;7272;53.668;9.578;2022-09-27T14:22:53;14.00;99.90
14378;DHT22;7272;53.668;9.578;2022-09-27T14:25:59;14.00;99.90
14378;DHT22;7272;53.668;9.578;2022-09-27T14:29:15;14.00;99.90
14378;DHT22;7272;53.668;9.578;2022-09-27T14:32:18;14.10;99.90
14378;DHT22;7272;53.668;9.578;2022-09-27T14:35:32;14.20;99.90
14378;DHT22;7272;53.668;9.578;2022-09-27T14:38:52;14.20;99.90
14378;DHT22;7272;53.668;9.578;2022-09-27T14:42:16;14.10;99.90
14378;DHT22;7272;53.668;9.578;2022-09-27T14:45:21;14.10;99.90
14378;DHT22;7272;53.668;9.578;2022-09-27T14:48:27;14.10;99.90
14378;DHT22;7272;53.668;9.578;2022-09-27T14:51:31;14.00;99.90
14378;DHT22;7272;53.668;9.578;2022-09-27T14:54:34;14.00;99.90
14378;DHT22;7272;53.668;9.578;2022-09-27T14:57:36;14.00;99.90
14378;DHT22;7272;53.668;9.578;2022-09-27T15:00:45;13.90;99.90
14378;DHT22;7272;53.668;9.578;2022-09-27T15:03:47;13.90;99.90
14378;DHT22;7272;53.668;9.578;2022-09-27T15:06:51;13.90;99.90
14378;DHT22;7272;53.668;9.578;2022-09-27T15:09:53;14.00;99.90
14378;DHT22;7272;53.668;9.578;2022-09-27T15:12:56;13.90;99.90
14378;DHT22;7272;53.668;9.578;2022-09-27T15:16:12;13.80;99.90
14378;DHT22;7272;53.668;9.578;2022-09-27T15:19:22;13.70;99.90
14378;DHT22;7272;53.668;9.578;2022-09-27T15:22:34;13.70;99.90
14378;DHT22;7272;53.668;9.578;2022-09-27T15:25:41;13.60;99.90
14378;DHT22;7272;53.668;9.578;2022-09-27T15:28:46;13.50;99.90
14378;DHT22;7272;53.668;9.578;2022-09-27T15:31:57;13.40;99.90
14378;DHT22;7272;53.668;9.578;2022-09-27T15:35:06;13.40;99.90
14378;DHT22;7272;53.668;9.578;2022-09-27T15:38:23;13.30;99.90
14378;DHT22;7272;53.668;9.578;2022-09-27T15:41:58;13.30;99.90
14378;DHT22;7272;53.668;9.578;2022-09-27T15:45:01;13.30;99.90
14378;DHT22;7272;53.668;9.578;2022-09-27T15:48:11;13.30;99.90
14378;DHT22;7272;53.668;9.578;2022-09-27T15:51:38;13.30;99.90
14378;DHT22;7272;53.668;9.578;2022-09-27T15:54:42;13.40;99.90
14378;DHT22;7272;53.668;9.578;2022-09-27T15:57:46;13.30;99.90
14378;DHT22;7272;53.668;9.578;2022-09-27T16:00:52;13.30;99.90
14378;DHT22;7272;53.668;9.578;2022-09-27T16:03:57;13.30;99.90
14378;DHT22;7272;53.668;9.578;2022-09-27T16:07:00;13.30;99.90
14378;DHT22;7272;53.668;9.578;2022-09-27T16:10:11;13.20;99.90
14378;DHT22;7272;53.668;9.578;2022-09-27T16:13:13;13.20;99.90
14378;DHT22;7272;53.668;9.578;2022-09-27T16:16:18;13.30;99.90
14378;DHT22;7272;53.668;9.578;2022-09-27T16:19:20;13.30;99.90
14378;DHT22;7272;53.668;9.578;2022-09-27T16:22:22;13.20;99.90
14378;DHT22;7272;53.668;9.578;2022-09-27T16:25:26;13.20;99.90
14378;DHT22;7272;53.668;9.578;2022-09-27T16:28:28;13.10;99.90
14378;DHT22;7272;53.668;9.578;2022-09-27T16:31:30;13.00;99.90
14378;DHT22;7272;53.668;9.578;2022-09-27T16:34:32;12.80;99.90
14378;DHT22;7272;53.668;9.578;2022-09-27T16:37:34;12.80;99.90
14378;DHT22;7272;53.668;9.578;2022-09-27T16:40:37;12.80;99.90
14378;DHT22;7272;53.668;9.578;2022-09-27T16:43:39;12.80;99.90
14378;DHT22;7272;53.668;9.578;2022-09-27T16:46:42;13.00;99.90
14378;DHT22;7272;53.668;9.578;2022-09-27T16:49:45;13.00;99.90
14378;DHT22;7272;53.668;9.578;2022-09-27T16:53:05;13.00;99.90
14378;DHT22;7272;53.668;9.578;2022-09-27T16:56:08;13.00;99.90
14378;DHT22;7272;53.668;9.578;2022-09-27T16:59:11;12.90;99.90
14378;DHT22;7272;53.668;9.578;2022-09-27T17:02:13;12.80;99.90
14378;DHT22;7272;53.668;9.578;2022-09-27T17:05:15;12.80;99.90
14378;DHT22;7272;53.668;9.578;2022-09-27T17:08:19;12.70;99.90
14378;DHT22;7272;53.668;9.578;2022-09-27T17:11:22;12.70;99.90
14378;DHT22;7272;53.668;9.578;2022-09-27T17:14:24;12.60;99.90
14378;DHT22;7272;53.668;9.578;2022-09-27T17:17:26;12.60;99.90
14378;DHT22;7272;53.668;9.578;2022-09-27T17:20:28;12.60;99.90
14378;DHT22;7272;53.668;9.578;2022-09-27T17:23:30;12.60;99.90
14378;DHT22;7272;53.668;9.578;2022-09-27T17:26:33;12.60;99.90
14378;DHT22;7272;53.668;9.578;2022-09-27T17:29:36;12.60;99.90
14378;DHT22;7272;53.668;9.578;2022-09-27T17:32:38;12.60;99.90
14378;DHT22;7272;53.668;9.578;2022-09-27T17:35:40;12.60;99.90
14378;DHT22;7272;53.668;9.578;2022-09-27T17:38:45;12.60;99.90
14378;DHT22;7272;53.668;9.578;2022-09-27T17:41:49;12.60;99.90
14378;DHT22;7272;53.668;9.578;2022-09-27T17:44:51;12.60;99.90
14378;DHT22;7272;53.668;9.578;2022-09-27T17:47:53;12.60;99.90
14378;DHT22;7272;53.668;9.578;2022-09-27T17:51:12;12.60;99.90
14378;DHT22;7272;53.668;9.578;2022-09-27T17:54:15;12.50;99.90
14378;DHT22;7272;53.668;9.578;2022-09-27T17:57:20;12.50;99.90
14378;DHT22;7272;53.668;9.578;2022-09-27T18:00:22;12.60;99.90
14378;DHT22;7272;53.668;9.578;2022-09-27T18:03:24;12.50;99.90
14378;DHT22;7272;53.668;9.578;2022-09-27T18:06:27;12.50;99.90
14378;DHT22;7272;53.668;9.578;2022-09-27T18:09:29;12.50;99.90
14378;DHT22;7272;53.668;9.578;2022-09-27T18:12:32;12.50;99.90
14378;DHT22;7272;53.668;9.578;2022-09-27T18:15:34;12.50;99.90
14378;DHT22;7272;53.668;9.578;2022-09-27T18:18:38;12.50;99.90
14378;DHT22;7272;53.668;9.578;2022-09-27T18:21:40;12.50;99.90
14378;DHT22;7272;53.668;9.578;2022-09-27T18:24:42;12.50;99.90
14378;DHT22;7272;53.668;9.578;2022-09-27T18:27:48;12.50;99.90
14378;DHT22;7272;53.668;9.578;2022-09-27T18:30:51;12.50;99.90
14378;DHT22;7272;53.668;9.578;2022-09-27T18:33:53;12.40;99.90
14378;DHT22;7272;53.668;9.578;2022-09-27T18:36:55;12.40;99.90
14378;DHT22;7272;53.668;9.578;2022-09-27T18:39:57;12.50;99.90
14378;DHT22;7272;53.668;9.578;2022-09-27T18:43:00;12.50;99.90
14378;DHT22;7272;53.668;9.578;2022-09-27T18:46:03;12.40;99.90
14378;DHT22;7272;53.668;9.578;2022-09-27T18:49:07;12.40;99.90
14378;DHT22;7272;53.668;9.578;2022-09-27T18:52:10;12.30;99.90
14378;DHT22;7272;53.668;9.578;2022-09-27T18:55:12;12.40;99.90
14378;DHT22;7272;53.668;9.578;2022-09-27T18:58:15;12.40;99.90
14378;DHT22;7272;53.668;9.578;2022-09-27T19:01:18;12.40;99.90
14378;DHT22;7272;53.668;9.578;2022-09-27T19:04:21;12.40;99.90
14378;DHT22;7272;53.668;9.578;2022-09-27T19:07:24;12.30;99.90
14378;DHT22;7272;53.668;9.578;2022-09-27T19:10:26;12.30;99.90
14378;DHT22;7272;53.668;9.578;2022-09-27T19:13:29;12.30;99.90
14378;DHT22;7272;53.668;9.578;2022-09-27T19:16:31;12.30;99.90
14378;DHT22;7272;53.668;9.578;2022-09-27T19:19:33;12.30;99.90
14378;DHT22;7272;53.668;9.578;2022-09-27T19:22:35;12.30;99.90
14378;DHT22;7272;53.668;9.578;2022-09-27T19:25:37;12.30;99.90
14378;DHT22;7272;53.668;9.578;2022-09-27T19:28:43;12.30;99.90
14378;DHT22;7272;53.668;9.578;2022-09-27T19:31:45;12.20;99.90
14378;DHT22;7272;53.668;9.578;2022-09-27T19:34:47;12.20;99.90
14378;DHT22;7272;53.668;9.578;2022-09-27T19:37:49;12.20;99.90
14378;DHT22;7272;53.668;9.578;2022-09-27T19:40:52;12.20;99.90
14378;DHT22;7272;53.668;9.578;2022-09-27T19:43:56;12.20;99.90
14378;DHT22;7272;53.668;9.578;2022-09-27T19:46:58;12.10;99.90
14378;DHT22;7272;53.668;9.578;2022-09-27T19:50:00;12.10;99.90
14378;DHT22;7272;53.668;9.578;2022-09-27T19:53:02;12.00;99.90
14378;DHT22;7272;53.668;9.578;2022-09-27T19:56:05;12.00;99.90
14378;DHT22;7272;53.668;9.578;2022-09-27T19:59:09;12.00;99.90
14378;DHT22;7272;53.668;9.578;2022-09-27T20:02:11;12.10;99.90
14378;DHT22;7272;53.668;9.578;2022-09-27T20:05:13;12.10;99.90
14378;DHT22;7272;53.668;9.578;2022-09-27T20:08:15;12.10;99.90
14378;DHT22;7272;53.668;9.578;2022-09-27T20:11:18;12.10;99.90
14378;DHT22;7272;53.668;9.578;2022-09-27T20:14:22;12.10;99.90
14378;DHT22;7272;53.668;9.578;2022-09-27T20:17:24;12.10;99.90
14378;DHT22;7272;53.668;9.578;2022-09-27T20:20:26;12.00;99.90
14378;DHT22;7272;53.668;9.578;2022-09-27T20:23:28;12.00;99.90